Flugmeteorologie

METAR


Letzte Änderung: 24 Feb 2021 20:20:00
660
SAHU41 HASM 242030
METAR LHSM 242015Z AUTO 06003KT 7000 NCD 08/04 Q1035

TAF


Letzte Änderung: 24 Feb 2021 20:05:00
659
FCHU99 LHSM 242000
TAF LHSM 242000Z NIL